Time;durP1;ratioP1;P1;durP2;ratioP2;P2;SDS_P1;SDS_P2;PMS_P1;PMS_P2;Temp;Humidity;BMP_temperature;BMP_pressure;BME280_temperature;BME280_humidity;BME280_pressure;Samples;Min_cycle;Max_cycle;Signal;HPM_P1;HPM_P2
2022/05/08 00:01:00;;;;;;;;;;;;;;;;;;5070608;28;19923;-57
2022/05/08 00:03:45;;;;;;;;;;;;;;;;;;5056174;28;19912;-58
2022/05/08 00:06:30;;;;;;;;;;;;;;;;;;5059556;28;20375;-58
2022/05/08 00:09:15;;;;;;;;;;;;;;;;;;5067614;28;20004;-65
2022/05/08 00:12:01;;;;;;;;;;;;;;;;;;5073069;28;20465;-61
2022/05/08 00:14:46;;;;;;;;;;;;;;;;;;5069965;28;19919;-63
2022/05/08 00:17:34;;;;;;;;;;;;;;;;;;5079118;28;20605;-62
2022/05/08 00:20:19;;;;;;;;;;;;;;;;;;5076958;28;19919;-62
2022/05/08 00:23:05;;;;;;;;;;;;;;;;;;5093199;28;19922;-62
2022/05/08 00:25:50;;;;;;;;;;;;;;;;;;5072488;28;19919;-67
2022/05/08 00:28:36;;;;;;;;;;;;;;;;;;5091176;28;20032;-64
2022/05/08 00:31:21;;;;;;;;;;;;;;;;;;5102624;28;19912;-63
2022/05/08 00:34:07;;;;;;;;;;;;;;;;;;5060031;28;20000;-64
2022/05/08 00:36:52;;;;;;;;;;;;;;;;;;5081497;28;19966;-65
2022/05/08 00:39:38;;;;;;;;;;;;;;;;;;5073869;28;20255;-63
2022/05/08 00:42:23;;;;;;;;;;;;;;;;;;5090811;28;20003;-66
2022/05/08 00:45:09;;;;;;;;;;;;;;;;;;5077174;28;20421;-63
2022/05/08 00:47:56;;;;;;;;;;;;;;;;;;5088509;28;19912;-62
2022/05/08 00:50:41;;;;;;;;;;;;;;;;;;5089738;28;19955;-67
2022/05/08 00:53:27;;;;;;;;;;;;;;;;;;5084653;28;19913;-61
2022/05/08 00:56:12;;;;;;;;;;;;;;;;;;5075347;28;19912;-63
2022/05/08 00:58:58;;;;;;;;;;;;;;;;;;5085166;28;19919;-64
2022/05/08 01:01:43;;;;;;;;;;;;;;;;;;5084688;28;19936;-70
2022/05/08 01:04:29;;;;;;;;;;;;;;;;;;5071971;28;19912;-63
2022/05/08 01:07:14;;;;;;;;;;;;;;;;;;5083586;28;20367;-63
2022/05/08 01:10:00;;;;;;;;;;;;;;;;;;5073529;28;19920;-63
2022/05/08 01:12:45;;;;;;;;;;;;;;;;;;5086009;28;19948;-63
2022/05/08 01:15:31;;;;;;;;;;;;;;;;;;5087395;28;19961;-63
2022/05/08 01:18:16;;;;;;;;;;;;;;;;;;5084794;28;19920;-65
2022/05/08 01:21:02;;;;;;;;;;;;;;;;;;5083493;28;20016;-67
2022/05/08 01:23:47;;;;;;;;;;;;;;;;;;5092338;28;19928;-68
2022/05/08 01:26:32;;;;;;;;;;;;;;;;;;5081880;28;19950;-67
2022/05/08 01:29:18;;;;;;;;;;;;;;;;;;5094324;28;19916;-68
2022/05/08 01:32:03;;;;;;;;;;;;;;;;;;5093612;28;19920;-69
2022/05/08 01:34:49;;;;;;;;;;;;;;;;;;5075607;28;19912;-67
2022/05/08 01:37:34;;;;;;;;;;;;;;;;;;5084571;28;20014;-62
2022/05/08 01:40:20;;;;;;;;;;;;;;;;;;5077788;28;19957;-66
2022/05/08 01:43:05;;;;;;;;;;;;;;;;;;5084144;28;19912;-64
2022/05/08 01:45:54;;;;;;;;;;;;;;;;;;5095259;28;19919;-66
2022/05/08 01:48:40;;;;;;;;;;;;;;;;;;5093685;28;19912;-66
2022/05/08 01:51:25;;;;;;;;;;;;;;;;;;5087387;28;19912;-66
2022/05/08 01:54:10;;;;;;;;;;;;;;;;;;5093639;28;19916;-66
2022/05/08 01:56:56;;;;;;;;;;;;;;;;;;5085294;28;20073;-65
2022/05/08 01:59:41;;;;;;;;;;;;;;;;;;5093738;28;20318;-75
2022/05/08 02:02:27;;;;;;;;;;;;;;;;;;5084564;28;19913;-75
2022/05/08 02:05:12;;;;;;;;;;;;;;;;;;5074906;28;20499;-75
2022/05/08 02:07:58;;;;;;;;;;;;;;;;;;5080564;28;19952;-75
2022/05/08 02:10:43;;;;;;;;;;;;;;;;;;5092911;28;20340;-75
2022/05/08 02:13:29;;;;;;;;;;;;;;;;;;5094390;28;19972;-69
2022/05/08 02:16:14;;;;;;;;;;;;;;;;;;5094492;28;20333;-69
2022/05/08 02:18:59;;;;;;;;;;;;;;;;;;5094332;28;19909;-63
2022/05/08 02:21:45;;;;;;;;;;;;;;;;;;5093899;28;20394;-63
2022/05/08 02:24:30;;;;;;;;;;;;;;;;;;5086942;28;19938;-63
2022/05/08 02:27:16;;;;;;;;;;;;;;;;;;5093755;28;19958;-63
2022/05/08 02:30:01;;;;;;;;;;;;;;;;;;5086708;28;20325;-63
2022/05/08 02:32:47;;;;;;;;;;;;;;;;;;5092492;28;19912;-69
2022/05/08 02:35:34;;;;;;;;;;;;;;;;;;5092883;28;19912;-66
2022/05/08 02:38:19;;;;;;;;;;;;;;;;;;5076013;28;19920;-65
2022/05/08 02:41:05;;;;;;;;;;;;;;;;;;5078086;28;19973;-67
2022/05/08 02:43:50;;;;;;;;;;;;;;;;;;5075194;28;19931;-66
2022/05/08 02:46:36;;;;;;;;;;;;;;;;;;5085065;28;19916;-66
2022/05/08 02:49:21;;;;;;;;;;;;;;;;;;5093260;28;19954;-66
2022/05/08 02:52:07;;;;;;;;;;;;;;;;;;5093878;28;19919;-79
2022/05/08 02:54:52;;;;;;;;;;;;;;;;;;5085904;28;19913;-62
2022/05/08 03:00:42;;;;;;;;;;;;;;;;;;5081735;28;19912;-62
2022/05/08 03:03:28;;;;;;;;;;;;;;;;;;5091313;28;19927;-63
2022/05/08 03:06:13;;;;;;;;;;;;;;;;;;5092176;28;19912;-63
2022/05/08 03:08:59;;;;;;;;;;;;;;;;;;5092895;28;19995;-75
2022/05/08 03:11:44;;;;;;;;;;;;;;;;;;5093129;28;19919;-75
2022/05/08 03:14:30;;;;;;;;;;;;;;;;;;5061947;28;20508;-73
2022/05/08 03:17:16;;;;;;;;;;;;;;;;;;5087308;28;19920;-74
2022/05/08 03:20:02;;;;;;;;;;;;;;;;;;5078245;28;20004;-73
2022/05/08 03:22:47;;;;;;;;;;;;;;;;;;5089378;28;19912;-73
2022/05/08 03:25:33;;;;;;;;;;;;;;;;;;5089354;28;19931;-73
2022/05/08 03:28:18;;;;;;;;;;;;;;;;;;5093092;28;19957;-63
2022/05/08 03:31:04;;;;;;;;;;;;;;;;;;5077710;28;19912;-66
2022/05/08 03:33:49;;;;;;;;;;;;;;;;;;5093493;28;19933;-66
2022/05/08 03:36:35;;;;;;;;;;;;;;;;;;5088258;28;19920;-65
2022/05/08 03:39:20;;;;;;;;;;;;;;;;;;5092908;28;20416;-67
2022/05/08 03:42:06;;;;;;;;;;;;;;;;;;5086484;28;20389;-65
2022/05/08 03:44:55;;;;;;;;;;;;;;;;;;5093128;28;19908;-66
2022/05/08 03:47:41;;;;;;;;;;;;;;;;;;5090483;28;20110;-61
2022/05/08 03:50:26;;;;;;;;;;;;;;;;;;5075938;28;19912;-67
2022/05/08 03:53:12;;;;;;;;;;;;;;;;;;5065931;28;19912;-67
2022/05/08 03:55:57;;;;;;;;;;;;;;;;;;5088331;28;20282;-67
2022/05/08 03:58:43;;;;;;;;;;;;;;;;;;5073447;28;20367;-67
2022/05/08 04:01:28;;;;;;;;;;;;;;;;;;5080115;28;19942;-67
2022/05/08 04:04:14;;;;;;;;;;;;;;;;;;5093084;28;19915;-67
2022/05/08 04:06:59;;;;;;;;;;;;;;;;;;5087264;28;19912;-63
2022/05/08 04:09:45;;;;;;;;;;;;;;;;;;5076159;28;19912;-64
2022/05/08 04:12:30;;;;;;;;;;;;;;;;;;5076671;28;19916;-62
2022/05/08 04:18:20;;;;;;;;;;;;;;;;;;5080385;28;19920;-63
2022/05/08 04:21:07;;;;;;;;;;;;;;;;;;5091836;28;20333;-62
2022/05/08 04:26:57;;;;;;;;;;;;;;;;;;5083326;28;20391;-67
2022/05/08 04:29:42;;;;;;;;;;;;;;;;;;5084180;28;19912;-67
2022/05/08 04:32:28;;;;;;;;;;;;;;;;;;5092464;28;19927;-67
2022/05/08 04:35:13;;;;;;;;;;;;;;;;;;5091331;28;19908;-66
2022/05/08 04:37:59;;;;;;;;;;;;;;;;;;5091174;28;20007;-67
2022/05/08 04:40:44;;;;;;;;;;;;;;;;;;5090180;28;19916;-67
2022/05/08 04:43:30;;;;;;;;;;;;;;;;;;5084714;28;20275;-79
2022/05/08 04:46:15;;;;;;;;;;;;;;;;;;5083078;28;19947;-80
2022/05/08 04:49:01;;;;;;;;;;;;;;;;;;5083283;28;19919;-78
2022/05/08 04:51:46;;;;;;;;;;;;;;;;;;5082920;28;20006;-79
2022/05/08 04:54:32;;;;;;;;;;;;;;;;;;5091850;28;20283;-79
2022/05/08 04:57:17;;;;;;;;;;;;;;;;;;5085892;28;19917;-79
2022/05/08 05:00:03;;;;;;;;;;;;;;;;;;5082434;28;19974;-62
2022/05/08 05:02:48;;;;;;;;;;;;;;;;;;5088301;28;19943;-68
2022/05/08 05:05:34;;;;;;;;;;;;;;;;;;5085503;28;20261;-66
2022/05/08 05:08:20;;;;;;;;;;;;;;;;;;5076419;28;20007;-68
2022/05/08 05:11:07;;;;;;;;;;;;;;;;;;5090116;28;19912;-67
2022/05/08 05:13:52;;;;;;;;;;;;;;;;;;5092627;28;19908;-67
2022/05/08 05:16:38;;;;;;;;;;;;;;;;;;5081516;28;20041;-67
2022/05/08 05:19:23;;;;;;;;;;;;;;;;;;5089947;28;19916;-63
2022/05/08 05:22:09;;;;;;;;;;;;;;;;;;5091448;28;19916;-69
2022/05/08 05:24:54;;;;;;;;;;;;;;;;;;5075524;28;19943;-66
2022/05/08 05:27:40;;;;;;;;;;;;;;;;;;5088292;28;20044;-66
2022/05/08 05:30:25;;;;;;;;;;;;;;;;;;5091402;28;20279;-68
2022/05/08 05:33:15;;;;;;;;;;;;;;;;;;5093060;28;20037;-66
2022/05/08 05:36:01;;;;;;;;;;;;;;;;;;5081982;28;20264;-66
2022/05/08 05:38:46;;;;;;;;;;;;;;;;;;5072881;28;19916;-74
2022/05/08 05:41:33;;;;;;;;;;;;;;;;;;5074062;28;19912;-66
2022/05/08 05:44:18;;;;;;;;;;;;;;;;;;5092357;28;19908;-67
2022/05/08 05:50:08;;;;;;;;;;;;;;;;;;5089650;28;19965;-66
2022/05/08 05:52:53;;;;;;;;;;;;;;;;;;5086820;28;19920;-66
2022/05/08 05:55:39;;;;;;;;;;;;;;;;;;5080757;28;20030;-76
2022/05/08 05:58:24;;;;;;;;;;;;;;;;;;5091139;28;19969;-77
2022/05/08 06:01:10;;;;;;;;;;;;;;;;;;5087644;28;19916;-77
2022/05/08 06:03:56;;;;;;;;;;;;;;;;;;5090547;28;19978;-77
2022/05/08 06:06:41;;;;;;;;;;;;;;;;;;5094242;28;19989;-76
2022/05/08 06:09:27;;;;;;;;;;;;;;;;;;5085470;28;19912;-77
2022/05/08 06:12:12;;;;;;;;;;;;;;;;;;5082857;28;19943;-76
2022/05/08 06:14:58;;;;;;;;;;;;;;;;;;5085577;28;20388;-63
2022/05/08 06:17:43;;;;;;;;;;;;;;;;;;5095138;28;19916;-75
2022/05/08 06:20:29;;;;;;;;;;;;;;;;;;5093987;28;20023;-74
2022/05/08 06:23:14;;;;;;;;;;;;;;;;;;5079266;28;20283;-67
2022/05/08 06:25:59;;;;;;;;;;;;;;;;;;5092057;28;20374;-65
2022/05/08 06:28:45;;;;;;;;;;;;;;;;;;5091915;28;19915;-68
2022/05/08 06:31:31;;;;;;;;;;;;;;;;;;5078693;28;19923;-64
2022/05/08 06:34:16;;;;;;;;;;;;;;;;;;5075834;28;19920;-65
2022/05/08 06:37:02;;;;;;;;;;;;;;;;;;5092257;28;19994;-64
2022/05/08 06:39:47;;;;;;;;;;;;;;;;;;5080530;28;20019;-63
2022/05/08 06:42:33;;;;;;;;;;;;;;;;;;5094550;28;19915;-63
2022/05/08 06:45:23;;;;;;;;;;;;;;;;;;5086202;28;20180;-61
2022/05/08 06:48:09;;;;;;;;;;;;;;;;;;5092628;28;19908;-61
2022/05/08 06:50:54;;;;;;;;;;;;;;;;;;5089247;28;19912;-60
2022/05/08 06:53:42;;;;;;;;;;;;;;;;;;5092075;28;20135;-65
2022/05/08 06:56:30;;;;;;;;;;;;;;;;;;5080482;28;19938;-62
2022/05/08 07:02:20;;;;;;;;;;;;;;;;;;5087479;28;20384;-66
2022/05/08 07:05:05;;;;;;;;;;;;;;;;;;5089395;28;20390;-72
2022/05/08 07:07:51;;;;;;;;;;;;;;;;;;5079137;28;19966;-69
2022/05/08 07:10:36;;;;;;;;;;;;;;;;;;5075043;28;19995;-67
2022/05/08 07:13:25;;;;;;;;;;;;;;;;;;5074965;28;19913;-65
2022/05/08 07:16:11;;;;;;;;;;;;;;;;;;5076941;28;19951;-65
2022/05/08 07:18:56;;;;;;;;;;;;;;;;;;5084817;28;19931;-60
2022/05/08 07:21:42;;;;;;;;;;;;;;;;;;5080594;28;19912;-60
2022/05/08 07:24:27;;;;;;;;;;;;;;;;;;5082088;28;19927;-60
2022/05/08 07:27:13;;;;;;;;;;;;;;;;;;5084311;28;20393;-66
2022/05/08 07:29:58;;;;;;;;;;;;;;;;;;5092290;28;19912;-59
2022/05/08 07:32:44;;;;;;;;;;;;;;;;;;5092967;28;20291;-60
2022/05/08 07:38:34;;;;;;;;;;;;;;;;;;5074818;28;19920;-59
2022/05/08 07:41:19;;;;;;;;;;;;;;;;;;5085672;28;19908;-56
2022/05/08 07:44:05;;;;;;;;;;;;;;;;;;5092744;28;20383;-59
2022/05/08 07:46:51;;;;;;;;;;;;;;;;;;5091895;28;19923;-58
2022/05/08 07:49:36;;;;;;;;;;;;;;;;;;5083935;28;19912;-57
2022/05/08 07:52:22;;;;;;;;;;;;;;;;;;5076256;28;19920;-57
2022/05/08 07:55:10;;;;;;;;;;;;;;;;;;5074078;28;19908;-61
2022/05/08 07:57:56;;;;;;;;;;;;;;;;;;5089286;28;19923;-62
2022/05/08 08:00:41;;;;;;;;;;;;;;;;;;5091200;28;19959;-60
2022/05/08 08:03:27;;;;;;;;;;;;;;;;;;5092749;28;19916;-63
2022/05/08 08:06:12;;;;;;;;;;;;;;;;;;5082618;28;19909;-65
2022/05/08 08:08:58;;;;;;;;;;;;;;;;;;5092511;28;20284;-71
2022/05/08 08:11:43;;;;;;;;;;;;;;;;;;5077565;28;20003;-75
2022/05/08 08:14:29;;;;;;;;;;;;;;;;;;5092859;28;19954;-65
2022/05/08 08:17:14;;;;;;;;;;;;;;;;;;5080928;28;20351;-66
2022/05/08 08:20:00;;;;;;;;;;;;;;;;;;5073477;28;20132;-71
2022/05/08 08:22:45;;;;;;;;;;;;;;;;;;5074240;28;19918;-72
2022/05/08 08:25:31;;;;;;;;;;;;;;;;;;5074264;28;19969;-72
2022/05/08 08:28:16;;;;;;;;;;;;;;;;;;5072795;28;20383;-68
2022/05/08 08:31:02;;;;;;;;;;;;;;;;;;5085998;28;20431;-77
2022/05/08 08:33:48;;;;;;;;;;;;;;;;;;5096805;28;19912;-75
2022/05/08 08:36:33;;;;;;;;;;;;;;;;;;5065902;28;19963;-69
2022/05/08 08:39:19;;;;;;;;;;;;;;;;;;5090734;28;20253;-73
2022/05/08 08:42:04;;;;;;;;;;;;;;;;;;5102958;28;20367;-65
2022/05/08 08:47:54;;;;;;;;;;;;;;;;;;5091820;28;19912;-64
2022/05/08 08:50:40;;;;;;;;;;;;;;;;;;5092095;28;19958;-63
2022/05/08 08:53:25;;;;;;;;;;;;;;;;;;5092399;28;19912;-63
2022/05/08 08:56:11;;;;;;;;;;;;;;;;;;5079681;28;19916;-60
2022/05/08 08:58:56;;;;;;;;;;;;;;;;;;5089700;28;19935;-66
2022/05/08 09:01:42;;;;;;;;;;;;;;;;;;5074699;28;19913;-62
2022/05/08 09:04:27;;;;;;;;;;;;;;;;;;5071623;28;19909;-61
2022/05/08 09:07:13;;;;;;;;;;;;;;;;;;5085473;28;19927;-62
2022/05/08 09:09:58;;;;;;;;;;;;;;;;;;5092010;28;19913;-66
2022/05/08 09:12:43;;;;;;;;;;;;;;;;;;5089951;28;20294;-63
2022/05/08 09:15:29;;;;;;;;;;;;;;;;;;5103963;28;19912;-63
2022/05/08 09:18:14;;;;;;;;;;;;;;;;;;5084560;28;20351;-72
2022/05/08 09:21:54;;;;;;;;;;;;;;;;;;5077903;28;19931;-69
2022/05/08 09:24:05;;;;;;;;;;;;;;;;;;5080859;28;19969;-70
2022/05/08 09:26:51;;;;;;;;;;;;;;;;;;5101409;28;19963;-66
2022/05/08 09:29:37;;;;;;;;;;;;;;;;;;5091341;28;19973;-66
2022/05/08 09:32:22;;;;;;;;;;;;;;;;;;5068979;28;19931;-70
2022/05/08 09:35:08;;;;;;;;;;;;;;;;;;5089698;28;19912;-70
2022/05/08 09:37:53;;;;;;;;;;;;;;;;;;5072707;28;19995;-73
2022/05/08 09:40:39;;;;;;;;;;;;;;;;;;5089778;28;19970;-61
2022/05/08 09:43:24;;;;;;;;;;;;;;;;;;5087432;28;20268;-60
2022/05/08 09:46:09;;;;;;;;;;;;;;;;;;5070877;28;19919;-61
2022/05/08 09:48:56;;;;;;;;;;;;;;;;;;5075628;28;19995;-62
2022/05/08 09:51:42;;;;;;;;;;;;;;;;;;5088239;28;20320;-61
2022/05/08 09:54:27;;;;;;;;;;;;;;;;;;5093479;28;20433;-66
2022/05/08 09:57:13;;;;;;;;;;;;;;;;;;5091488;28;19952;-60
2022/05/08 09:59:59;;;;;;;;;;;;;;;;;;5093976;28;20371;-60
2022/05/08 10:02:44;;;;;;;;;;;;;;;;;;5091119;28;19919;-61
2022/05/08 10:05:30;;;;;;;;;;;;;;;;;;5085398;28;20350;-60
2022/05/08 10:08:15;;;;;;;;;;;;;;;;;;5095350;28;19957;-59
2022/05/08 10:14:05;;;;;;;;;;;;;;;;;;5088964;28;20349;-68
2022/05/08 10:16:51;;;;;;;;;;;;;;;;;;5084237;28;20287;-58
2022/05/08 10:19:36;;;;;;;;;;;;;;;;;;5089043;28;19916;-56
2022/05/08 10:22:22;;;;;;;;;;;;;;;;;;5089755;28;20399;-56
2022/05/08 10:25:07;;;;;;;;;;;;;;;;;;5086532;28;19927;-55
2022/05/08 10:27:53;;;;;;;;;;;;;;;;;;5075405;28;19988;-57
2022/05/08 10:30:40;;;;;;;;;;;;;;;;;;5076203;28;19913;-60
2022/05/08 10:33:25;;;;;;;;;;;;;;;;;;5093418;28;19965;-69
2022/05/08 10:36:11;;;;;;;;;;;;;;;;;;5094202;28;20315;-61
2022/05/08 10:38:57;;;;;;;;;;;;;;;;;;5093926;28;19920;-61
2022/05/08 10:41:42;;;;;;;;;;;;;;;;;;5078475;28;19912;-62
2022/05/08 10:44:28;;;;;;;;;;;;;;;;;;5094917;28;19919;-62
2022/05/08 10:47:13;;;;;;;;;;;;;;;;;;5078417;28;19966;-61
2022/05/08 10:49:58;;;;;;;;;;;;;;;;;;5083331;28;19931;-61
2022/05/08 10:52:44;;;;;;;;;;;;;;;;;;5094371;28;19997;-60
2022/05/08 10:55:29;;;;;;;;;;;;;;;;;;5091693;28;20280;-61
2022/05/08 10:58:15;;;;;;;;;;;;;;;;;;5075145;28;19916;-63
2022/05/08 11:01:02;;;;;;;;;;;;;;;;;;5075320;28;19912;-62
2022/05/08 11:03:47;;;;;;;;;;;;;;;;;;5075162;28;19959;-61
2022/05/08 11:06:33;;;;;;;;;;;;;;;;;;5088516;28;20008;-60
2022/05/08 11:09:18;;;;;;;;;;;;;;;;;;5092895;28;19954;-69
2022/05/08 11:12:03;;;;;;;;;;;;;;;;;;5075376;28;20410;-69
2022/05/08 11:14:49;;;;;;;;;;;;;;;;;;5073882;28;19908;-69
2022/05/08 11:17:34;;;;;;;;;;;;;;;;;;5076389;28;19928;-69
2022/05/08 11:20:20;;;;;;;;;;;;;;;;;;5093882;28;19912;-70
2022/05/08 11:23:05;;;;;;;;;;;;;;;;;;5093788;28;19959;-70
2022/05/08 11:25:51;;;;;;;;;;;;;;;;;;5084620;28;20306;-70
2022/05/08 11:28:37;;;;;;;;;;;;;;;;;;5075680;28;19935;-66
2022/05/08 11:31:26;;;;;;;;;;;;;;;;;;5074536;28;19913;-63
2022/05/08 11:37:33;;;;;;;;;;;;;;;;;;5034623;28;19968;-62
2022/05/08 11:40:18;;;;;;;;;;;;;;;;;;5093138;28;19908;-62
2022/05/08 11:43:04;;;;;;;;;;;;;;;;;;5075010;28;19920;-61
2022/05/08 11:45:49;;;;;;;;;;;;;;;;;;5077116;28;19958;-69
2022/05/08 11:48:36;;;;;;;;;;;;;;;;;;5082080;28;20331;-68
2022/05/08 11:51:22;;;;;;;;;;;;;;;;;;5074229;28;20275;-67
2022/05/08 11:54:07;;;;;;;;;;;;;;;;;;5074270;28;19995;-68
2022/05/08 11:56:53;;;;;;;;;;;;;;;;;;5084508;28;20370;-68
2022/05/08 11:59:38;;;;;;;;;;;;;;;;;;5085216;28;19916;-69
2022/05/08 12:02:24;;;;;;;;;;;;;;;;;;5094126;28;20359;-68
2022/05/08 12:05:10;;;;;;;;;;;;;;;;;;5076746;28;19912;-72
2022/05/08 12:07:55;;;;;;;;;;;;;;;;;;5078854;28;20011;-65
2022/05/08 12:10:45;;;;;;;;;;;;;;;;;;5093164;28;20313;-65
2022/05/08 12:13:34;;;;;;;;;;;;;;;;;;5091663;28;19912;-64
2022/05/08 12:16:19;;;;;;;;;;;;;;;;;;5091477;28;19922;-65
2022/05/08 12:19:05;;;;;;;;;;;;;;;;;;5091322;28;20007;-66
2022/05/08 12:21:50;;;;;;;;;;;;;;;;;;5092069;28;19974;-62
2022/05/08 12:24:36;;;;;;;;;;;;;;;;;;5083136;28;19921;-64
2022/05/08 12:27:21;;;;;;;;;;;;;;;;;;5086403;28;20343;-64
2022/05/08 12:30:07;;;;;;;;;;;;;;;;;;5091976;28;19915;-63
2022/05/08 12:32:53;;;;;;;;;;;;;;;;;;5092727;28;19908;-64
2022/05/08 12:35:38;;;;;;;;;;;;;;;;;;5092469;28;19914;-62
2022/05/08 12:38:26;;;;;;;;;;;;;;;;;;5079788;28;19981;-64
2022/05/08 12:41:12;;;;;;;;;;;;;;;;;;5073399;28;19915;-72
2022/05/08 12:43:57;;;;;;;;;;;;;;;;;;5076674;28;20011;-61
2022/05/08 12:46:43;;;;;;;;;;;;;;;;;;5092322;28;20359;-61
2022/05/08 12:49:28;;;;;;;;;;;;;;;;;;5072041;28;19912;-62
2022/05/08 12:52:14;;;;;;;;;;;;;;;;;;5073134;28;19962;-63
2022/05/08 12:54:59;;;;;;;;;;;;;;;;;;5073178;28;19908;-63
2022/05/08 13:00:49;;;;;;;;;;;;;;;;;;5083067;28;20310;-72
2022/05/08 13:03:35;;;;;;;;;;;;;;;;;;5086281;28;19920;-69
2022/05/08 13:06:21;;;;;;;;;;;;;;;;;;5079436;28;19912;-69
2022/05/08 13:09:06;;;;;;;;;;;;;;;;;;5092038;28;19920;-69
2022/05/08 13:11:52;;;;;;;;;;;;;;;;;;5092247;28;19912;-68
2022/05/08 13:14:37;;;;;;;;;;;;;;;;;;5083018;28;19920;-67
2022/05/08 13:17:23;;;;;;;;;;;;;;;;;;5092780;28;21427;-70
2022/05/08 13:20:09;;;;;;;;;;;;;;;;;;5110824;28;19919;-71
2022/05/08 13:22:54;;;;;;;;;;;;;;;;;;5078465;28;19918;-73
2022/05/08 13:25:39;;;;;;;;;;;;;;;;;;5105988;28;20034;-72
2022/05/08 13:28:29;;;;;;;;;;;;;;;;;;5089642;28;19927;-72
2022/05/08 13:31:14;;;;;;;;;;;;;;;;;;5094407;28;19908;-71
2022/05/08 13:34:00;;;;;;;;;;;;;;;;;;5101866;28;20340;-71
2022/05/08 13:36:45;;;;;;;;;;;;;;;;;;5096462;28;20345;-71
2022/05/08 13:39:31;;;;;;;;;;;;;;;;;;5095715;28;19920;-64
2022/05/08 13:42:18;;;;;;;;;;;;;;;;;;5100355;28;19951;-62
2022/05/08 13:45:03;;;;;;;;;;;;;;;;;;5103382;28;20366;-62
2022/05/08 13:47:48;;;;;;;;;;;;;;;;;;5096341;28;19957;-63
2022/05/08 13:50:34;;;;;;;;;;;;;;;;;;5078230;28;19916;-64
2022/05/08 13:53:20;;;;;;;;;;;;;;;;;;5092392;28;19919;-71
2022/05/08 13:56:06;;;;;;;;;;;;;;;;;;5098433;28;19912;-62
2022/05/08 13:58:51;;;;;;;;;;;;;;;;;;5090964;28;20015;-65
2022/05/08 14:01:37;;;;;;;;;;;;;;;;;;5092795;28;19912;-64
2022/05/08 14:04:22;;;;;;;;;;;;;;;;;;5086098;28;19920;-63
2022/05/08 14:07:08;;;;;;;;;;;;;;;;;;5086044;28;19920;-64
2022/05/08 14:09:55;;;;;;;;;;;;;;;;;;5090524;28;19912;-64
2022/05/08 14:12:40;;;;;;;;;;;;;;;;;;5104159;28;19916;-62
2022/05/08 14:15:26;;;;;;;;;;;;;;;;;;5081390;28;19955;-71
2022/05/08 14:18:11;;;;;;;;;;;;;;;;;;5089731;28;19916;-73
2022/05/08 14:20:57;;;;;;;;;;;;;;;;;;5090759;28;19919;-73
2022/05/08 14:23:42;;;;;;;;;;;;;;;;;;5087602;28;19942;-72
2022/05/08 14:26:27;;;;;;;;;;;;;;;;;;5087702;28;20391;-73
2022/05/08 14:29:13;;;;;;;;;;;;;;;;;;5079000;28;19919;-72
2022/05/08 14:38:07;;;;;;;;;;;;;;;;;;5080815;28;19919;-63
2022/05/08 14:40:53;;;;;;;;;;;;;;;;;;5086070;28;19912;-62
2022/05/08 14:43:41;;;;;;;;;;;;;;;;;;5088136;28;19919;-64
2022/05/08 14:46:27;;;;;;;;;;;;;;;;;;5077408;28;20003;-63
2022/05/08 14:49:12;;;;;;;;;;;;;;;;;;5092427;28;19962;-64
2022/05/08 14:51:58;;;;;;;;;;;;;;;;;;5093312;28;19913;-74
2022/05/08 14:54:43;;;;;;;;;;;;;;;;;;5085068;28;20310;-74
2022/05/08 14:57:29;;;;;;;;;;;;;;;;;;5078411;28;19916;-74
2022/05/08 15:00:14;;;;;;;;;;;;;;;;;;5072028;28;20421;-75
2022/05/08 15:03:01;;;;;;;;;;;;;;;;;;5092946;28;20256;-75
2022/05/08 15:05:47;;;;;;;;;;;;;;;;;;5085435;28;19981;-75
2022/05/08 15:08:33;;;;;;;;;;;;;;;;;;5074160;28;19912;-62
2022/05/08 15:11:20;;;;;;;;;;;;;;;;;;5089584;28;20527;-63
2022/05/08 15:14:05;;;;;;;;;;;;;;;;;;5081318;28;19916;-62
2022/05/08 15:16:51;;;;;;;;;;;;;;;;;;5095294;27;19939;-64
2022/05/08 15:19:36;;;;;;;;;;;;;;;;;;5087564;28;19923;-65
2022/05/08 15:22:22;;;;;;;;;;;;;;;;;;5092866;28;19999;-64
2022/05/08 15:25:07;;;;;;;;;;;;;;;;;;5088932;28;19927;-65
2022/05/08 15:27:53;;;;;;;;;;;;;;;;;;5081936;28;19912;-65
2022/05/08 15:30:41;;;;;;;;;;;;;;;;;;5091432;28;19908;-70
2022/05/08 15:33:27;;;;;;;;;;;;;;;;;;5090228;28;19958;-69
2022/05/08 15:36:12;;;;;;;;;;;;;;;;;;5091976;28;20355;-69
2022/05/08 15:38:57;;;;;;;;;;;;;;;;;;5089752;28;19981;-68
2022/05/08 15:41:43;;;;;;;;;;;;;;;;;;5073816;28;19920;-70
2022/05/08 15:44:28;;;;;;;;;;;;;;;;;;5082254;28;19912;-67
2022/05/08 15:47:14;;;;;;;;;;;;;;;;;;5089720;28;19919;-66
2022/05/08 15:49:59;;;;;;;;;;;;;;;;;;5089322;28;19912;-66
2022/05/08 15:52:45;;;;;;;;;;;;;;;;;;5065380;28;19926;-68
2022/05/08 15:55:32;;;;;;;;;;;;;;;;;;5071010;28;19920;-67
2022/05/08 15:58:17;;;;;;;;;;;;;;;;;;5091721;28;20019;-68
2022/05/08 16:01:03;;;;;;;;;;;;;;;;;;5076112;28;20367;-68
2022/05/08 16:03:48;;;;;;;;;;;;;;;;;;5078839;28;19913;-69
2022/05/08 16:06:34;;;;;;;;;;;;;;;;;;5083181;28;19937;-63
2022/05/08 16:09:20;;;;;;;;;;;;;;;;;;5083010;28;19966;-63
2022/05/08 16:12:05;;;;;;;;;;;;;;;;;;5091374;28;19955;-62
2022/05/08 16:23:48;;;;;;;;;;;;;;;;;;5073443;28;19920;-68
2022/05/08 16:26:37;;;;;;;;;;;;;;;;;;5081151;28;19912;-68
2022/05/08 16:29:24;;;;;;;;;;;;;;;;;;5093642;28;19955;-70
2022/05/08 16:32:09;;;;;;;;;;;;;;;;;;5092990;28;19948;-68
2022/05/08 16:34:56;;;;;;;;;;;;;;;;;;5073340;28;19923;-69
2022/05/08 16:37:42;;;;;;;;;;;;;;;;;;5090741;28;19920;-71
2022/05/08 16:40:27;;;;;;;;;;;;;;;;;;5088545;28;19944;-62
2022/05/08 16:43:12;;;;;;;;;;;;;;;;;;5091212;28;19935;-65
2022/05/08 16:45:58;;;;;;;;;;;;;;;;;;5081215;28;19944;-64
2022/05/08 16:48:45;;;;;;;;;;;;;;;;;;5075175;28;19912;-65
2022/05/08 16:51:32;;;;;;;;;;;;;;;;;;5082633;28;19952;-67
2022/05/08 16:54:22;;;;;;;;;;;;;;;;;;5069275;28;19912;-66
2022/05/08 16:57:08;;;;;;;;;;;;;;;;;;5090400;28;19927;-64
2022/05/08 16:59:53;;;;;;;;;;;;;;;;;;5082612;28;19916;-68
2022/05/08 17:02:39;;;;;;;;;;;;;;;;;;5089032;28;19912;-63
2022/05/08 17:05:25;;;;;;;;;;;;;;;;;;5083226;28;19919;-65
2022/05/08 17:08:11;;;;;;;;;;;;;;;;;;5092703;28;19955;-65
2022/05/08 17:10:56;;;;;;;;;;;;;;;;;;5085319;28;20976;-67
2022/05/08 17:13:42;;;;;;;;;;;;;;;;;;5087179;28;19912;-64
2022/05/08 17:16:27;;;;;;;;;;;;;;;;;;5085006;28;19948;-68
2022/05/08 17:19:14;;;;;;;;;;;;;;;;;;5084658;28;19920;-69
2022/05/08 17:22:00;;;;;;;;;;;;;;;;;;5092793;28;19920;-69
2022/05/08 17:24:46;;;;;;;;;;;;;;;;;;5073414;28;19927;-72
2022/05/08 17:30:36;;;;;;;;;;;;;;;;;;5089821;28;19908;-68
2022/05/08 17:33:21;;;;;;;;;;;;;;;;;;5091941;28;19918;-73
2022/05/08 17:36:07;;;;;;;;;;;;;;;;;;5091555;28;19915;-61
2022/05/08 17:38:52;;;;;;;;;;;;;;;;;;5080108;28;19927;-70
2022/05/08 17:41:38;;;;;;;;;;;;;;;;;;5088182;28;20412;-65
2022/05/08 17:44:23;;;;;;;;;;;;;;;;;;5095499;28;19965;-63
2022/05/08 17:47:09;;;;;;;;;;;;;;;;;;5084038;28;19912;-64
2022/05/08 17:49:54;;;;;;;;;;;;;;;;;;5089184;28;19915;-62
2022/05/08 17:52:40;;;;;;;;;;;;;;;;;;5073448;28;19913;-64
2022/05/08 17:55:25;;;;;;;;;;;;;;;;;;5079644;28;19927;-74
2022/05/08 17:58:11;;;;;;;;;;;;;;;;;;5088816;28;20390;-72
2022/05/08 18:00:57;;;;;;;;;;;;;;;;;;5092036;28;20429;-70
2022/05/08 18:06:47;;;;;;;;;;;;;;;;;;5090436;28;20037;-71
2022/05/08 18:09:32;;;;;;;;;;;;;;;;;;5092344;28;19999;-78
2022/05/08 18:12:18;;;;;;;;;;;;;;;;;;5072305;28;20321;-67
2022/05/08 18:15:03;;;;;;;;;;;;;;;;;;5081162;28;19919;-61
2022/05/08 18:17:49;;;;;;;;;;;;;;;;;;5094206;28;19920;-61
2022/05/08 18:20:36;;;;;;;;;;;;;;;;;;5089678;28;19924;-60
2022/05/08 18:23:21;;;;;;;;;;;;;;;;;;5091108;28;19969;-60
2022/05/08 18:26:07;;;;;;;;;;;;;;;;;;5089995;28;19920;-60
2022/05/08 18:28:52;;;;;;;;;;;;;;;;;;5089580;28;20325;-60
2022/05/08 18:31:39;;;;;;;;;;;;;;;;;;5088913;28;19952;-68
2022/05/08 18:34:24;;;;;;;;;;;;;;;;;;5084383;28;19916;-67
2022/05/08 18:37:09;;;;;;;;;;;;;;;;;;5091892;28;19927;-68
2022/05/08 18:39:55;;;;;;;;;;;;;;;;;;5091366;28;19931;-69
2022/05/08 18:42:40;;;;;;;;;;;;;;;;;;5089943;28;19911;-69
2022/05/08 18:45:26;;;;;;;;;;;;;;;;;;5087460;28;19912;-69
2022/05/08 18:48:11;;;;;;;;;;;;;;;;;;5084512;28;19912;-64
2022/05/08 18:50:57;;;;;;;;;;;;;;;;;;5085029;28;20278;-72
2022/05/08 18:53:42;;;;;;;;;;;;;;;;;;5089439;28;20414;-71
2022/05/08 18:56:29;;;;;;;;;;;;;;;;;;5084949;28;19912;-70
2022/05/08 18:59:14;;;;;;;;;;;;;;;;;;5092646;28;20458;-71
2022/05/08 19:02:00;;;;;;;;;;;;;;;;;;5088009;28;19934;-71
2022/05/08 19:04:45;;;;;;;;;;;;;;;;;;5072125;28;19984;-71
2022/05/08 19:07:31;;;;;;;;;;;;;;;;;;5094873;28;19912;-62
2022/05/08 19:10:16;;;;;;;;;;;;;;;;;;5087784;28;19912;-63
2022/05/08 19:13:02;;;;;;;;;;;;;;;;;;5099803;28;19916;-63
2022/05/08 19:15:47;;;;;;;;;;;;;;;;;;5083718;28;20307;-62
2022/05/08 19:18:33;;;;;;;;;;;;;;;;;;5091790;28;19923;-63
2022/05/08 19:21:18;;;;;;;;;;;;;;;;;;5088979;28;19916;-64
2022/05/08 19:24:04;;;;;;;;;;;;;;;;;;5094359;28;19926;-63
2022/05/08 19:26:50;;;;;;;;;;;;;;;;;;5076319;28;19912;-70
2022/05/08 19:29:36;;;;;;;;;;;;;;;;;;5074169;28;19912;-69
2022/05/08 19:38:29;;;;;;;;;;;;;;;;;;5085489;28;19920;-67
2022/05/08 19:41:15;;;;;;;;;;;;;;;;;;5092923;28;19912;-68
2022/05/08 19:44:00;;;;;;;;;;;;;;;;;;5080669;28;19920;-60
2022/05/08 19:46:46;;;;;;;;;;;;;;;;;;5067713;28;19916;-69
2022/05/08 19:49:31;;;;;;;;;;;;;;;;;;5088695;28;19912;-69